Aérodrome :
LOGIN :

S'inscrire | Disclaimer

   EN    FR    IT 

 










Légende :    VFR   VFR Marginal   IFR   IFR Intensif   IFR Très Intensif
Visi : 
Plafond : 
>= 8 km
>= 3000ft
5 à 8 km
1000 à 3000 ft
1500m à 5 km
500 à 1000 ft
800 à 1500m
200 à 500 ft
< 800m
< 200 ft
Symboles :   Orages  Brouillard  Fortes neiges  Fortes précipitations  Vent > 20 kt
SIGMETs :   Divers  Orages  Givrage  Turbulence  Onde Orograph.  Cendres Volcan.






- Altitude de l'aérodrome : 11 ft
- Code IATA : SXL


EISG - Sligo

METAR N/A
TAF TAF EISG
Valide du 28 à 06h jusqu'au 28 à 15h UTC


280500Z 2806/2815 13010KT 9999 -RA SCT008 BKN015
BECMG 2806/2808 13014G25KT
TEMPO 2806/2809 4000 BKN007
BECMG 2809/2811 13012KT
TEMPO 2809/2813 3000 -DZ BR BKN005
PROB30
TEMPO 2810/2812 1500 BKN003
BECMG 2811/2813 24015G26KT
BECMG 2813/2815 21010KT NSW FEW012 BKN025



MET'MAP, la Météo Aéronautique d'un coup d'oeil ! - Copyright ORBIFLY Décembre 2007 - Disclaimer

ORBIFLY MET'MAP TEAM :

Programmation & Développement : Alexandra Zaïnal
Sur une idée originale de : Baudouin d'Aumeries
Assistance à la programmation : Marc-Olivier Méhu
Soutien technique & logistique : Manuel Goepfert

Contact : metmap@orbifly.com




SOURCES & CREDITS :

   NOAA